createdAt,value
2022-09-28T00:00:36.412Z,39.84
2022-09-28T00:02:04.095Z,39.89
2022-09-28T00:03:15.931Z,39.79
2022-09-28T00:04:34.062Z,39.49
2022-09-28T00:05:41.820Z,39.46
2022-09-28T00:06:52.397Z,39.30
2022-09-28T00:08:00.688Z,39.28
2022-09-28T00:09:09.719Z,39.23
2022-09-28T00:10:21.052Z,39.12
2022-09-28T00:11:29.810Z,39.26
2022-09-28T00:12:37.154Z,39.18
2022-09-28T00:13:45.269Z,39.08
2022-09-28T00:14:55.633Z,38.99
2022-09-28T00:16:11.460Z,38.74
2022-09-28T00:17:24.596Z,38.64
2022-09-28T00:18:32.380Z,38.67
2022-09-28T00:19:42.512Z,38.63
2022-09-28T00:20:50.605Z,38.49
2022-09-28T00:22:00.448Z,38.37
2022-09-28T00:23:12.213Z,38.28
2022-09-28T00:24:27.516Z,38.17
2022-09-28T00:25:39.397Z,38.16
2022-09-28T00:26:50.768Z,38.17
2022-09-28T00:28:00.062Z,37.96
2022-09-28T00:29:08.282Z,37.80
2022-09-28T00:30:18.185Z,37.65
2022-09-28T00:31:28.527Z,37.59
2022-09-28T00:32:37.121Z,37.67
2022-09-28T00:33:46.234Z,37.66
2022-09-28T00:34:54.213Z,37.64
2022-09-28T00:36:02.085Z,37.52
2022-09-28T00:37:12.084Z,37.50
2022-09-28T00:38:21.842Z,37.42
2022-09-28T00:39:37.461Z,37.31
2022-09-28T00:40:44.870Z,37.09
2022-09-28T00:41:53.627Z,36.86
2022-09-28T00:43:01.687Z,36.62
2022-09-28T00:44:35.450Z,36.43
2022-09-28T00:45:43.673Z,36.25
2022-09-28T00:47:16.624Z,36.15
2022-09-28T00:48:24.480Z,36.04
2022-09-28T00:49:35.312Z,36.13
2022-09-28T00:50:42.628Z,36.18
2022-09-28T00:51:49.967Z,36.21
2022-09-28T00:53:12.773Z,36.26
2022-09-28T00:54:20.700Z,36.34
2022-09-28T00:55:51.212Z,36.37
2022-09-28T00:56:58.739Z,36.32
2022-09-28T00:58:07.392Z,36.25
2022-09-28T00:59:16.914Z,36.23
2022-09-28T01:00:25.439Z,36.19
2022-09-28T01:01:34.729Z,36.14
2022-09-28T01:02:43.178Z,36.12
2022-09-28T01:03:51.962Z,36.05
2022-09-28T01:05:00.280Z,36.01
2022-09-28T01:06:08.114Z,35.92
2022-09-28T01:07:16.088Z,35.86
2022-09-28T01:08:24.696Z,35.77
2022-09-28T01:09:33.658Z,35.57
2022-09-28T01:10:42.153Z,35.47
2022-09-28T01:11:54.049Z,35.26
2022-09-28T01:13:02.882Z,35.18
2022-09-28T01:14:14.040Z,35.04
2022-09-28T01:15:23.072Z,34.86
2022-09-28T01:16:55.289Z,34.74
2022-09-28T01:18:26.515Z,34.43
2022-09-28T01:19:37.221Z,34.15
2022-09-28T01:21:06.579Z,33.95
2022-09-28T01:22:47.888Z,33.68
2022-09-28T01:24:11.275Z,33.43
2022-09-28T01:25:47.640Z,33.22
2022-09-28T01:27:38.007Z,33.01
2022-09-28T01:28:49.625Z,32.80
2022-09-28T01:30:10.740Z,32.68
2022-09-28T01:31:18.675Z,32.55
2022-09-28T01:32:30.859Z,32.44
2022-09-28T01:34:02.641Z,32.34
2022-09-28T01:35:23.146Z,32.22
2022-09-28T01:36:47.645Z,32.10
2022-09-28T01:38:05.631Z,31.97
2022-09-28T01:39:19.827Z,31.84
2022-09-28T01:40:28.216Z,31.73
2022-09-28T01:41:39.872Z,31.64
2022-09-28T01:42:49.100Z,31.54
2022-09-28T01:44:00.805Z,31.43
2022-09-28T01:45:12.202Z,31.34
2022-09-28T01:46:22.398Z,31.25
2022-09-28T01:47:30.002Z,31.17
2022-09-28T01:49:05.749Z,31.07
2022-09-28T01:50:19.418Z,30.91
2022-09-28T01:51:36.942Z,30.80
2022-09-28T01:53:07.136Z,30.69
2022-09-28T01:54:22.149Z,30.54
2022-09-28T01:55:36.537Z,30.42
2022-09-28T01:57:15.831Z,30.29
2022-09-28T01:58:35.103Z,30.14
2022-09-28T01:59:45.142Z,30.06
2022-09-28T02:00:57.564Z,29.97
2022-09-28T02:02:14.363Z,29.88
2022-09-28T02:03:25.604Z,29.81
2022-09-28T02:04:45.153Z,29.73
2022-09-28T02:06:05.486Z,29.65
2022-09-28T02:07:36.984Z,29.56
2022-09-28T02:08:50.466Z,29.46
2022-09-28T02:10:01.979Z,29.41
2022-09-28T02:11:21.882Z,29.36
2022-09-28T02:12:37.655Z,29.28
2022-09-28T02:14:05.050Z,29.21
2022-09-28T02:15:36.703Z,29.11
2022-09-28T02:16:51.619Z,29.05
2022-09-28T02:18:04.474Z,28.97
2022-09-28T02:19:19.327Z,28.92
2022-09-28T02:20:27.244Z,28.86
2022-09-28T02:21:46.327Z,28.82
2022-09-28T02:22:55.836Z,28.75
2022-09-28T02:24:05.763Z,28.68
2022-09-28T02:25:13.818Z,28.59
2022-09-28T02:26:21.652Z,28.56
2022-09-28T02:27:53.134Z,28.54
2022-09-28T02:29:03.277Z,28.49
2022-09-28T02:30:11.820Z,28.46
2022-09-28T02:31:19.652Z,28.42
2022-09-28T02:32:27.869Z,28.40
2022-09-28T02:33:39.623Z,28.37
2022-09-28T02:34:47.264Z,28.34
2022-09-28T02:35:54.980Z,28.33
2022-09-28T02:37:03.657Z,28.34
2022-09-28T02:38:16.115Z,28.40
2022-09-28T02:39:24.728Z,28.43
2022-09-28T02:40:34.538Z,28.44
2022-09-28T02:41:54.801Z,28.43
2022-09-28T02:43:08.769Z,28.40
2022-09-28T02:44:45.645Z,28.38
2022-09-28T02:46:14.495Z,28.31
2022-09-28T02:48:10.736Z,28.29
2022-09-28T02:49:36.698Z,28.26
2022-09-28T02:51:01.459Z,28.24
2022-09-28T02:52:24.473Z,28.23
2022-09-28T02:54:08.402Z,28.22
2022-09-28T02:55:41.882Z,28.16
2022-09-28T02:57:07.612Z,28.12
2022-09-28T02:58:27.887Z,28.06
2022-09-28T02:59:42.455Z,28.00
2022-09-28T03:01:07.498Z,27.95
2022-09-28T03:02:24.084Z,27.89
2022-09-28T03:03:57.631Z,27.84
2022-09-28T03:05:17.283Z,27.75
2022-09-28T03:06:47.195Z,27.67
2022-09-28T03:08:03.838Z,27.59
2022-09-28T03:09:33.392Z,27.54
2022-09-28T03:10:43.037Z,27.48
2022-09-28T03:11:55.602Z,27.44
2022-09-28T03:13:03.054Z,27.41
2022-09-28T03:14:11.193Z,27.40
2022-09-28T03:15:26.598Z,27.38
2022-09-28T03:16:34.383Z,27.33
2022-09-28T03:17:41.838Z,27.29
2022-09-28T03:18:49.190Z,27.24
2022-09-28T03:19:56.571Z,27.20
2022-09-28T03:21:06.402Z,27.15
2022-09-28T03:22:14.116Z,27.10
2022-09-28T03:23:25.461Z,27.03
2022-09-28T03:24:33.712Z,26.98
2022-09-28T03:25:42.121Z,26.93
2022-09-28T03:26:49.351Z,26.91
2022-09-28T03:27:56.961Z,26.90
2022-09-28T03:29:05.182Z,26.90
2022-09-28T03:30:13.417Z,26.89
2022-09-28T03:31:22.346Z,26.86
2022-09-28T03:32:29.571Z,26.83
2022-09-28T03:33:37.341Z,26.80
2022-09-28T03:34:45.407Z,26.79
2022-09-28T03:35:53.273Z,26.77
2022-09-28T03:37:01.394Z,26.76
2022-09-28T03:38:09.300Z,26.76
2022-09-28T03:39:18.173Z,26.77
2022-09-28T03:40:26.072Z,26.76
2022-09-28T03:41:33.588Z,26.76
2022-09-28T03:42:41.670Z,26.73
2022-09-28T03:43:49.339Z,26.72
2022-09-28T03:44:57.353Z,26.71
2022-09-28T03:46:05.659Z,26.71
2022-09-28T03:47:19.789Z,26.70
2022-09-28T03:48:32.405Z,26.68
2022-09-28T03:49:42.048Z,26.65
2022-09-28T03:50:51.188Z,26.60
2022-09-28T03:51:59.360Z,26.56
2022-09-28T03:53:10.945Z,26.51
2022-09-28T03:54:18.568Z,26.48
2022-09-28T03:55:26.205Z,26.45
2022-09-28T03:56:53.711Z,26.38
2022-09-28T03:58:01.313Z,26.31
2022-09-28T03:59:32.607Z,26.25
2022-09-28T04:00:40.694Z,26.19
2022-09-28T04:01:58.398Z,26.13
2022-09-28T04:03:10.252Z,26.10
2022-09-28T04:04:18.038Z,26.08
2022-09-28T04:05:25.952Z,26.08
2022-09-28T04:06:33.238Z,26.07
2022-09-28T04:07:40.691Z,26.04
2022-09-28T04:08:48.381Z,25.99
2022-09-28T04:09:56.555Z,25.96
2022-09-28T04:11:10.558Z,25.92
2022-09-28T04:12:21.749Z,25.89
2022-09-28T04:13:29.689Z,25.87
2022-09-28T04:14:38.234Z,25.86
2022-09-28T04:15:45.748Z,25.85
2022-09-28T04:16:56.113Z,25.85
2022-09-28T04:18:06.628Z,25.84
2022-09-28T04:19:28.350Z,25.85
2022-09-28T04:21:15.539Z,25.87
2022-09-28T04:22:26.155Z,25.90
2022-09-28T04:23:33.930Z,25.94
2022-09-28T04:24:43.405Z,25.98
2022-09-28T04:25:54.997Z,26.00
2022-09-28T04:27:22.897Z,26.00
2022-09-28T04:28:49.006Z,25.97
2022-09-28T04:29:59.738Z,25.95
2022-09-28T04:31:12.018Z,25.94
2022-09-28T04:32:20.038Z,25.92
2022-09-28T04:33:27.941Z,25.90
2022-09-28T04:34:38.767Z,25.90
2022-09-28T04:35:50.022Z,25.89
2022-09-28T04:36:57.511Z,25.89
2022-09-28T04:38:05.256Z,25.90
2022-09-28T04:39:14.105Z,25.91
2022-09-28T04:40:24.662Z,25.93
2022-09-28T04:41:32.958Z,25.95
2022-09-28T04:42:43.693Z,25.98
2022-09-28T04:43:50.838Z,26.02
2022-09-28T04:45:00.176Z,26.07
2022-09-28T04:46:07.799Z,26.12
2022-09-28T04:47:23.244Z,26.14
2022-09-28T04:48:51.306Z,26.17
2022-09-28T04:50:18.665Z,26.18
2022-09-28T04:51:46.437Z,26.18
2022-09-28T04:52:56.027Z,26.16
2022-09-28T04:54:04.813Z,26.13
2022-09-28T04:55:17.610Z,26.11
2022-09-28T04:56:26.207Z,26.12
2022-09-28T04:57:38.055Z,26.14
2022-09-28T04:58:51.735Z,26.17
2022-09-28T05:00:02.702Z,26.18
2022-09-28T05:01:19.225Z,26.14
2022-09-28T05:02:37.036Z,26.06
2022-09-28T05:04:26.131Z,25.97
2022-09-28T05:05:53.906Z,25.90
2022-09-28T05:07:25.790Z,25.85
2022-09-28T05:08:35.477Z,25.80
2022-09-28T05:09:43.832Z,25.76
2022-09-28T05:10:56.408Z,25.69
2022-09-28T05:12:05.496Z,25.63
2022-09-28T05:13:16.027Z,25.57
2022-09-28T05:14:26.264Z,25.52
2022-09-28T05:15:36.076Z,25.47
2022-09-28T05:16:44.432Z,25.43
2022-09-28T05:18:17.715Z,25.42
2022-09-28T05:19:32.032Z,25.38
2022-09-28T05:20:43.775Z,25.36
2022-09-28T05:21:52.125Z,25.35
2022-09-28T05:23:04.535Z,25.33
2022-09-28T05:24:14.429Z,25.29
2022-09-28T05:25:26.893Z,25.28
2022-09-28T05:26:47.925Z,25.27
2022-09-28T05:28:00.439Z,25.25
2022-09-28T05:29:38.370Z,25.20
2022-09-28T05:31:06.152Z,25.14
2022-09-28T05:32:45.574Z,25.06
2022-09-28T05:34:10.287Z,24.98
2022-09-28T05:35:19.851Z,24.93
2022-09-28T05:36:29.918Z,24.92
2022-09-28T05:37:39.437Z,24.89
2022-09-28T05:38:47.717Z,24.83
2022-09-28T05:39:57.146Z,24.79
2022-09-28T05:41:07.026Z,24.71
2022-09-28T05:42:16.757Z,24.67
2022-09-28T05:43:26.251Z,24.62
2022-09-28T05:44:34.087Z,24.59
2022-09-28T05:45:43.514Z,24.56
2022-09-28T05:46:52.203Z,24.53
2022-09-28T05:48:01.830Z,24.51
2022-09-28T05:49:10.621Z,24.49
2022-09-28T05:50:20.776Z,24.47
2022-09-28T05:51:30.215Z,24.44
2022-09-28T05:52:38.534Z,24.41
2022-09-28T05:53:47.701Z,24.39
2022-09-28T05:54:57.817Z,24.34
2022-09-28T05:56:08.035Z,24.30
2022-09-28T05:57:20.562Z,24.24
2022-09-28T05:58:30.330Z,24.18
2022-09-28T05:59:39.481Z,24.14
2022-09-28T06:00:47.532Z,24.09
2022-09-28T06:01:56.439Z,24.05
2022-09-28T06:03:10.086Z,24.01
2022-09-28T06:04:18.705Z,23.97
2022-09-28T06:05:31.638Z,23.93
2022-09-28T06:06:40.540Z,23.88
2022-09-28T06:07:48.916Z,23.84
2022-09-28T06:08:57.793Z,23.80
2022-09-28T06:10:30.844Z,23.73
2022-09-28T06:11:41.883Z,23.67
2022-09-28T06:12:59.893Z,23.64
2022-09-28T06:14:09.464Z,23.62
2022-09-28T06:15:19.776Z,23.62
2022-09-28T06:16:28.250Z,23.60
2022-09-28T06:17:36.978Z,23.57
2022-09-28T06:19:15.406Z,23.50
2022-09-28T06:20:44.777Z,23.44
2022-09-28T06:21:59.271Z,23.41
2022-09-28T06:23:09.382Z,23.37
2022-09-28T06:24:18.630Z,23.34
2022-09-28T06:25:29.580Z,23.33
2022-09-28T06:26:38.601Z,23.33
2022-09-28T06:27:56.125Z,23.33
2022-09-28T06:29:05.277Z,23.32
2022-09-28T06:30:14.423Z,23.31
2022-09-28T06:31:26.073Z,23.31
2022-09-28T06:32:34.983Z,23.32
2022-09-28T06:33:44.487Z,23.35
2022-09-28T06:34:56.283Z,23.34
2022-09-28T06:36:08.387Z,23.36
2022-09-28T06:37:18.011Z,23.35
2022-09-28T06:38:29.447Z,23.36
2022-09-28T06:39:37.477Z,23.38
2022-09-28T06:40:45.901Z,23.39
2022-09-28T06:41:54.435Z,23.39
2022-09-28T06:43:14.391Z,23.40
2022-09-28T06:45:02.413Z,23.39
2022-09-28T06:46:27.381Z,23.39
2022-09-28T06:48:04.045Z,23.40
2022-09-28T06:49:21.838Z,23.41
2022-09-28T06:50:49.916Z,23.40
2022-09-28T06:52:09.210Z,23.36
2022-09-28T06:53:37.549Z,23.30
2022-09-28T06:55:14.026Z,23.29
2022-09-28T06:56:27.302Z,23.34
2022-09-28T06:57:39.638Z,23.36
2022-09-28T06:58:47.730Z,23.39
2022-09-28T06:59:55.891Z,23.42
2022-09-28T07:01:04.273Z,23.44
2022-09-28T07:02:25.728Z,23.45
2022-09-28T07:04:04.203Z,23.42
2022-09-28T07:05:31.991Z,23.34
2022-09-28T07:07:03.658Z,23.28
2022-09-28T07:08:36.315Z,23.22
2022-09-28T07:10:03.294Z,23.14
2022-09-28T07:11:46.780Z,23.07
2022-09-28T07:13:49.445Z,23.01
2022-09-28T07:15:01.047Z,23.00
2022-09-28T07:16:14.900Z,22.99
2022-09-28T07:17:24.760Z,22.96
2022-09-28T07:18:33.636Z,22.93
2022-09-28T07:19:41.959Z,22.89
2022-09-28T07:20:54.596Z,22.85
2022-09-28T07:22:05.560Z,22.83
2022-09-28T07:23:19.303Z,22.80
2022-09-28T07:25:01.359Z,22.76
2022-09-28T07:26:28.887Z,22.70
2022-09-28T07:27:43.670Z,22.63
2022-09-28T07:29:25.704Z,22.55
2022-09-28T07:30:52.610Z,22.46
2022-09-28T07:32:25.511Z,22.41
2022-09-28T07:34:04.756Z,22.37
2022-09-28T07:35:36.359Z,22.32
2022-09-28T07:36:45.107Z,22.27
2022-09-28T07:38:00.855Z,22.22
2022-09-28T07:39:09.665Z,22.17
2022-09-28T07:40:43.200Z,22.12
2022-09-28T07:41:59.732Z,22.12
2022-09-28T07:43:15.088Z,22.13
2022-09-28T07:44:25.071Z,22.10
2022-09-28T07:45:40.076Z,22.05
2022-09-28T07:46:48.157Z,22.00
2022-09-28T07:48:06.523Z,21.94
2022-09-28T07:49:34.162Z,21.90
2022-09-28T07:51:20.927Z,21.84
2022-09-28T07:52:47.713Z,21.81
2022-09-28T07:54:08.410Z,21.81
2022-09-28T07:55:37.078Z,21.81
2022-09-28T07:56:50.310Z,21.80
2022-09-28T07:58:18.083Z,21.77
2022-09-28T07:59:56.425Z,21.73
2022-09-28T08:01:26.866Z,21.70
2022-09-28T08:02:36.855Z,21.66
2022-09-28T08:03:47.106Z,21.63
2022-09-28T08:04:55.527Z,21.62
2022-09-28T08:06:06.658Z,21.61
2022-09-28T08:07:23.708Z,21.60
2022-09-28T08:08:45.712Z,21.58
2022-09-28T08:09:56.175Z,21.56
2022-09-28T08:11:12.904Z,21.56
2022-09-28T08:12:43.782Z,21.55
2022-09-28T08:14:10.716Z,21.53
2022-09-28T08:15:38.969Z,21.53
2022-09-28T08:16:57.982Z,21.55
2022-09-28T08:18:20.825Z,21.58
2022-09-28T08:19:49.682Z,21.60
2022-09-28T08:21:16.192Z,21.63
2022-09-28T08:22:26.043Z,21.64
2022-09-28T08:23:37.053Z,21.66
2022-09-28T08:24:46.098Z,21.67
2022-09-28T08:25:55.839Z,21.69
2022-09-28T08:27:04.782Z,21.70
2022-09-28T08:28:14.927Z,21.70
2022-09-28T08:29:28.867Z,21.68
2022-09-28T08:30:58.107Z,21.68
2022-09-28T08:32:15.572Z,21.67
2022-09-28T08:33:55.482Z,21.63
2022-09-28T08:35:22.555Z,21.59
2022-09-28T08:36:53.770Z,21.56
2022-09-28T08:38:35.382Z,21.54
2022-09-28T08:40:27.522Z,21.55
2022-09-28T08:42:03.820Z,21.58
2022-09-28T08:43:40.440Z,21.62
2022-09-28T08:45:22.788Z,21.64
2022-09-28T08:46:51.309Z,21.65
2022-09-28T08:49:06.619Z,21.66
2022-09-28T08:50:55.758Z,21.68
2022-09-28T08:52:25.183Z,21.71
2022-09-28T08:54:48.360Z,21.74
2022-09-28T08:56:10.275Z,21.76
2022-09-28T08:57:34.034Z,21.77
2022-09-28T08:58:44.497Z,21.76
2022-09-28T09:00:02.814Z,21.75
2022-09-28T09:01:18.279Z,21.73
2022-09-28T09:02:35.145Z,21.72
2022-09-28T09:03:57.263Z,21.72
2022-09-28T09:05:22.152Z,21.69
2022-09-28T09:06:59.706Z,21.65
2022-09-28T09:08:41.400Z,21.61
2022-09-28T09:10:03.741Z,21.55
2022-09-28T09:11:33.352Z,21.49
2022-09-28T09:13:02.318Z,21.45
2022-09-28T09:14:36.222Z,21.42
2022-09-28T09:15:59.588Z,21.40
2022-09-28T09:17:54.289Z,21.39
2022-09-28T09:19:38.596Z,21.36
2022-09-28T09:21:24.366Z,21.33
2022-09-28T09:22:37.604Z,21.32
2022-09-28T09:23:58.213Z,21.28
2022-09-28T09:25:28.828Z,21.22
2022-09-28T09:26:41.696Z,21.15
2022-09-28T09:28:03.952Z,21.10
2022-09-28T09:29:46.506Z,21.07
2022-09-28T09:31:13.139Z,21.01
2022-09-28T09:33:06.734Z,20.98
2022-09-28T09:34:34.117Z,20.96
2022-09-28T09:36:41.327Z,20.92
2022-09-28T09:38:28.622Z,20.86
2022-09-28T09:40:28.444Z,20.81
2022-09-28T09:42:12.143Z,20.74
2022-09-28T09:44:31.607Z,20.70
2022-09-28T09:46:42.441Z,20.68
2022-09-28T09:48:06.578Z,20.66
2022-09-28T09:49:32.107Z,20.64
2022-09-28T09:50:58.819Z,20.63
2022-09-28T09:52:28.721Z,20.62
2022-09-28T09:53:43.639Z,20.57
2022-09-28T09:54:58.665Z,20.52
2022-09-28T09:56:20.957Z,20.47
2022-09-28T09:57:55.057Z,20.46
2022-09-28T09:59:29.756Z,20.46
2022-09-28T10:00:47.026Z,20.43
2022-09-28T10:02:29.966Z,20.37
2022-09-28T10:04:00.574Z,20.31
2022-09-28T10:05:15.681Z,20.29
2022-09-28T10:06:29.736Z,20.29
2022-09-28T10:07:43.591Z,20.29
2022-09-28T10:09:14.937Z,20.31
2022-09-28T10:10:26.765Z,20.34
2022-09-28T10:11:51.970Z,20.35
2022-09-28T10:13:01.227Z,20.34
2022-09-28T10:14:10.772Z,20.31
2022-09-28T10:15:32.868Z,20.29
2022-09-28T10:16:51.210Z,20.26
2022-09-28T10:18:19.063Z,20.25
2022-09-28T10:19:45.729Z,20.22
2022-09-28T10:21:25.294Z,20.21
2022-09-28T10:22:40.048Z,20.18
2022-09-28T10:23:57.243Z,20.17
2022-09-28T10:25:12.296Z,20.15
2022-09-28T10:26:36.436Z,20.11
2022-09-28T10:27:47.991Z,20.07
2022-09-28T10:29:20.230Z,20.03
2022-09-28T10:30:30.359Z,19.97
2022-09-28T10:31:43.570Z,19.91
2022-09-28T10:33:03.297Z,19.86
2022-09-28T10:34:17.168Z,19.80
2022-09-28T10:35:29.957Z,19.75
2022-09-28T10:37:00.369Z,19.72
2022-09-28T10:38:19.427Z,19.69
2022-09-28T10:39:55.585Z,19.70
2022-09-28T10:41:12.251Z,19.72
2022-09-28T10:42:34.417Z,19.76
2022-09-28T10:43:57.420Z,19.78
2022-09-28T10:45:11.602Z,19.81
2022-09-28T10:46:26.752Z,19.84
2022-09-28T10:47:36.148Z,19.89
2022-09-28T10:48:53.859Z,19.92
2022-09-28T10:50:05.883Z,19.95
2022-09-28T10:51:14.648Z,19.97
2022-09-28T10:52:32.648Z,19.98
2022-09-28T10:53:40.974Z,20.01
2022-09-28T10:55:35.149Z,20.03
2022-09-28T10:56:43.184Z,20.05
2022-09-28T10:57:55.412Z,20.05
2022-09-28T10:59:04.285Z,20.06
2022-09-28T11:00:39.390Z,20.07
2022-09-28T11:02:17.060Z,20.08
2022-09-28T11:03:30.086Z,20.07
2022-09-28T11:04:43.264Z,20.05
2022-09-28T11:06:10.362Z,20.01
2022-09-28T11:07:26.878Z,19.96
2022-09-28T11:08:44.756Z,19.93
2022-09-28T11:09:59.194Z,19.89
2022-09-28T11:11:18.316Z,19.86
2022-09-28T11:12:40.990Z,19.83
2022-09-28T11:13:50.984Z,19.80
2022-09-28T11:15:05.514Z,19.76
2022-09-28T11:16:27.567Z,19.73
2022-09-28T11:17:42.130Z,19.68
2022-09-28T11:18:50.749Z,19.62
2022-09-28T11:20:04.407Z,19.58
2022-09-28T11:21:21.274Z,19.53
2022-09-28T11:22:37.870Z,19.47
2022-09-28T11:24:11.903Z,19.44
2022-09-28T11:25:25.751Z,19.40
2022-09-28T11:26:44.196Z,19.37
2022-09-28T11:28:08.088Z,19.32
2022-09-28T11:29:29.045Z,19.30
2022-09-28T11:31:14.180Z,19.32
2022-09-28T11:32:48.993Z,19.35
2022-09-28T11:34:57.580Z,19.36
2022-09-28T11:36:14.135Z,19.38
2022-09-28T11:37:36.037Z,19.39
2022-09-28T11:39:19.998Z,19.39
2022-09-28T11:40:46.159Z,19.41
2022-09-28T11:42:14.131Z,19.42
2022-09-28T11:43:48.406Z,19.42
2022-09-28T11:45:27.816Z,19.40
2022-09-28T11:47:12.921Z,19.39
2022-09-28T11:48:25.033Z,19.34
2022-09-28T11:49:41.759Z,19.31
2022-09-28T11:51:01.023Z,19.26
2022-09-28T11:52:49.437Z,19.21
2022-09-28T11:53:59.399Z,19.18
2022-09-28T11:55:34.598Z,19.17
2022-09-28T11:56:52.393Z,19.15
2022-09-28T11:58:08.919Z,19.14
2022-09-28T11:59:41.308Z,19.13
2022-09-28T12:00:54.739Z,19.09
2022-09-28T12:02:30.443Z,19.05
2022-09-28T12:03:50.415Z,19.02
2022-09-28T12:05:20.863Z,19.00
2022-09-28T12:06:37.097Z,18.96
2022-09-28T12:07:50.476Z,18.93
2022-09-28T12:09:25.628Z,18.89
2022-09-28T12:11:11.521Z,18.85
2022-09-28T12:13:04.644Z,18.87
2022-09-28T12:14:25.843Z,18.90
2022-09-28T12:16:27.235Z,18.93
2022-09-28T12:17:55.523Z,18.99
2022-09-28T12:19:11.129Z,19.04
2022-09-28T12:20:24.264Z,19.09
2022-09-28T12:21:40.623Z,19.13
2022-09-28T12:23:10.629Z,19.15
2022-09-28T12:24:40.417Z,19.15
2022-09-28T12:26:11.993Z,19.14
2022-09-28T12:27:30.807Z,19.12
2022-09-28T12:28:50.008Z,19.08
2022-09-28T12:30:14.177Z,19.04
2022-09-28T12:31:24.331Z,19.02
2022-09-28T12:32:43.871Z,19.04
2022-09-28T12:33:52.890Z,19.06
2022-09-28T12:35:02.135Z,19.10
2022-09-28T12:36:44.589Z,19.12
2022-09-28T12:38:10.855Z,19.17
2022-09-28T12:39:40.815Z,19.21
2022-09-28T12:40:59.926Z,19.23
2022-09-28T12:42:49.421Z,19.22
2022-09-28T12:44:15.071Z,19.23
2022-09-28T12:46:12.001Z,19.27
2022-09-28T12:47:47.419Z,19.32
2022-09-28T12:51:04.939Z,19.32
2022-09-28T12:52:47.047Z,19.31
2022-09-28T12:54:04.719Z,19.28
2022-09-28T12:55:18.831Z,19.26
2022-09-28T12:57:17.905Z,19.26
2022-09-28T12:58:38.754Z,19.21
2022-09-28T13:00:06.735Z,19.16
2022-09-28T13:01:25.156Z,19.09
2022-09-28T13:03:13.595Z,19.03
2022-09-28T13:04:39.303Z,18.98
2022-09-28T13:06:08.965Z,18.92
2022-09-28T13:07:26.489Z,18.89
2022-09-28T13:08:59.141Z,18.86
2022-09-28T13:10:34.682Z,18.83
2022-09-28T13:12:05.681Z,18.78
2022-09-28T13:13:49.477Z,18.75
2022-09-28T13:15:11.142Z,18.74
2022-09-28T13:16:32.351Z,18.71
2022-09-28T13:17:50.612Z,18.69
2022-09-28T13:19:18.267Z,18.65
2022-09-28T13:20:42.453Z,18.60
2022-09-28T13:21:57.326Z,18.57
2022-09-28T13:23:12.678Z,18.53
2022-09-28T13:24:32.548Z,18.49
2022-09-28T13:25:44.224Z,18.48
2022-09-28T13:26:52.381Z,18.46
2022-09-28T13:28:04.092Z,18.45
2022-09-28T13:29:20.456Z,18.48
2022-09-28T13:30:29.797Z,18.56
2022-09-28T13:31:46.836Z,18.62
2022-09-28T13:32:55.530Z,18.67
2022-09-28T13:34:05.176Z,18.70
2022-09-28T13:35:18.045Z,18.70
2022-09-28T13:36:34.989Z,18.70
2022-09-28T13:37:43.558Z,18.70
2022-09-28T13:38:51.247Z,18.69
2022-09-28T13:40:00.919Z,18.71
2022-09-28T13:41:11.309Z,18.72
2022-09-28T13:42:47.361Z,18.74
2022-09-28T13:44:14.130Z,18.78
2022-09-28T13:45:28.928Z,18.82
2022-09-28T13:47:12.681Z,18.85
2022-09-28T13:48:43.826Z,18.88
2022-09-28T13:50:05.231Z,18.91
2022-09-28T13:51:18.085Z,18.92
2022-09-28T13:52:46.649Z,18.94
2022-09-28T13:54:06.152Z,18.96
2022-09-28T13:55:35.108Z,18.97
2022-09-28T13:57:16.552Z,19.01
2022-09-28T13:58:40.352Z,19.06
2022-09-28T14:00:14.206Z,19.11
2022-09-28T14:01:26.216Z,19.15
2022-09-28T14:02:43.101Z,19.18
2022-09-28T14:04:23.452Z,19.24
2022-09-28T14:05:43.430Z,19.43
2022-09-28T14:06:58.948Z,19.64
2022-09-28T14:08:22.954Z,19.88
2022-09-28T14:09:47.326Z,20.13
2022-09-28T14:10:59.759Z,20.39
2022-09-28T14:12:37.286Z,20.61
2022-09-28T14:13:45.884Z,20.72
2022-09-28T14:14:54.156Z,20.73
2022-09-28T14:16:25.595Z,20.73
2022-09-28T14:18:03.827Z,20.76
2022-09-28T14:19:18.971Z,20.97
2022-09-28T14:20:28.400Z,21.29
2022-09-28T14:21:50.273Z,21.62
2022-09-28T14:23:31.208Z,22.05
2022-09-28T14:24:54.399Z,22.55
2022-09-28T14:26:17.362Z,22.88
2022-09-28T14:28:03.383Z,23.07
2022-09-28T14:29:31.485Z,23.27
2022-09-28T14:30:46.614Z,23.55
2022-09-28T14:31:55.123Z,23.86
2022-09-28T14:33:04.669Z,24.08
2022-09-28T14:34:34.238Z,24.29
2022-09-28T14:35:43.010Z,24.52
2022-09-28T14:37:13.484Z,24.70
2022-09-28T14:39:05.359Z,24.94
2022-09-28T14:40:39.205Z,25.32
2022-09-28T14:41:47.830Z,25.73
2022-09-28T14:43:31.299Z,26.02
2022-09-28T14:45:06.708Z,26.44
2022-09-28T14:46:17.686Z,26.71
2022-09-28T14:47:53.385Z,26.84
2022-09-28T14:49:07.101Z,26.97
2022-09-28T14:50:29.284Z,27.10
2022-09-28T14:51:39.876Z,27.22
2022-09-28T14:52:50.508Z,27.33
2022-09-28T14:54:02.665Z,27.53
2022-09-28T14:55:18.338Z,27.80
2022-09-28T14:56:31.851Z,28.17
2022-09-28T14:57:42.900Z,28.50
2022-09-28T14:58:55.337Z,28.68
2022-09-28T15:00:03.845Z,28.78
2022-09-28T15:01:19.297Z,29.00
2022-09-28T15:02:33.274Z,29.25
2022-09-28T15:03:41.257Z,29.54
2022-09-28T15:04:53.769Z,29.71
2022-09-28T15:06:03.488Z,29.85
2022-09-28T15:07:32.125Z,29.83
2022-09-28T15:08:41.009Z,29.79
2022-09-28T15:09:52.328Z,29.81
2022-09-28T15:11:00.552Z,29.85
2022-09-28T15:12:18.568Z,29.90
2022-09-28T15:13:30.745Z,29.91
2022-09-28T15:15:04.437Z,29.94
2022-09-28T15:16:15.159Z,30.00
2022-09-28T15:17:29.628Z,30.05
2022-09-28T15:18:53.368Z,30.10
2022-09-28T15:20:19.751Z,30.13
2022-09-28T15:21:43.901Z,30.20
2022-09-28T15:22:59.061Z,30.27
2022-09-28T15:24:28.651Z,30.18
2022-09-28T15:25:43.975Z,30.05
2022-09-28T15:26:54.987Z,29.99
2022-09-28T15:28:19.578Z,29.89
2022-09-28T15:29:35.422Z,29.72
2022-09-28T15:30:47.087Z,29.49
2022-09-28T15:31:55.510Z,29.28
2022-09-28T15:33:23.967Z,29.15
2022-09-28T15:34:54.571Z,29.10
2022-09-28T15:36:05.429Z,29.14
2022-09-28T15:37:14.891Z,29.31
2022-09-28T15:38:23.605Z,29.70
2022-09-28T15:39:36.686Z,30.14
2022-09-28T15:40:48.855Z,30.52
2022-09-28T15:41:56.755Z,30.81
2022-09-28T15:43:12.492Z,31.07
2022-09-28T15:44:31.507Z,31.11
2022-09-28T15:45:42.746Z,31.22
2022-09-28T15:46:58.858Z,31.34
2022-09-28T15:48:34.315Z,31.30
2022-09-28T15:49:46.599Z,31.12
2022-09-28T15:51:13.564Z,30.95
2022-09-28T15:52:38.682Z,30.69
2022-09-28T15:54:07.840Z,30.51
2022-09-28T15:55:23.703Z,30.50
2022-09-28T15:56:33.035Z,30.49
2022-09-28T15:57:41.804Z,30.50
2022-09-28T15:59:11.973Z,30.42
2022-09-28T16:00:32.034Z,30.43
2022-09-28T16:01:45.197Z,30.53
2022-09-28T16:03:02.663Z,30.51
2022-09-28T16:04:58.206Z,30.57
2022-09-28T16:06:11.367Z,30.53
2022-09-28T16:07:25.491Z,30.50
2022-09-28T16:08:41.157Z,30.57
2022-09-28T16:10:06.019Z,30.82
2022-09-28T16:11:27.656Z,30.98
2022-09-28T16:12:40.588Z,31.03
2022-09-28T16:13:56.411Z,31.09
2022-09-28T16:15:21.462Z,31.15
2022-09-28T16:16:51.627Z,31.13
2022-09-28T16:18:06.186Z,31.06
2022-09-28T16:19:41.626Z,31.06
2022-09-28T16:21:00.403Z,31.00
2022-09-28T16:22:11.220Z,30.88
2022-09-28T16:23:18.732Z,30.84
2022-09-28T16:24:28.448Z,30.74
2022-09-28T16:25:38.447Z,30.80
2022-09-28T16:26:45.616Z,30.77
2022-09-28T16:27:56.403Z,30.75
2022-09-28T16:29:26.996Z,30.68
2022-09-28T16:30:35.220Z,30.71
2022-09-28T16:31:45.009Z,30.94
2022-09-28T16:32:58.712Z,31.14
2022-09-28T16:34:11.572Z,31.31
2022-09-28T16:35:30.443Z,31.32
2022-09-28T16:36:46.531Z,31.46
2022-09-28T16:38:05.156Z,31.67
2022-09-28T16:39:15.745Z,31.76
2022-09-28T16:40:23.190Z,31.81
2022-09-28T16:41:30.665Z,31.76
2022-09-28T16:42:37.987Z,31.72
2022-09-28T16:43:45.336Z,31.80
2022-09-28T16:44:52.478Z,31.83
2022-09-28T16:46:01.971Z,31.99
2022-09-28T16:47:09.590Z,32.28
2022-09-28T16:48:20.907Z,32.51
2022-09-28T16:49:29.586Z,32.84
2022-09-28T16:50:36.742Z,32.92
2022-09-28T16:51:44.567Z,33.09
2022-09-28T16:53:17.451Z,33.40
2022-09-28T16:54:44.079Z,33.64
2022-09-28T16:55:51.656Z,33.82
2022-09-28T16:56:58.924Z,34.00
2022-09-28T16:58:06.054Z,34.12
2022-09-28T16:59:14.002Z,34.40
2022-09-28T17:00:24.056Z,34.65